sensor_id;sensor_type;location;lat;lon;timestamp;temperature;humidity
70593;DHT22;58294;42.988;20.338;2023-03-23T00:01:48;154.20;1587.20
70593;DHT22;58294;42.988;20.338;2023-03-23T00:04:17;154.20;1587.20
70593;DHT22;58294;42.988;20.338;2023-03-23T00:06:42;154.20;1587.20
70593;DHT22;58294;42.988;20.338;2023-03-23T00:09:11;154.20;1587.20
70593;DHT22;58294;42.988;20.338;2023-03-23T00:11:37;154.10;1587.20
70593;DHT22;58294;42.988;20.338;2023-03-23T00:14:04;154.10;1587.20
70593;DHT22;58294;42.988;20.338;2023-03-23T00:16:31;154.00;1612.80
70593;DHT22;58294;42.988;20.338;2023-03-23T00:18:58;154.00;1612.80
70593;DHT22;58294;42.988;20.338;2023-03-23T00:21:25;154.00;1612.80
70593;DHT22;58294;42.988;20.338;2023-03-23T00:24:09;154.00;1612.80
70593;DHT22;58294;42.988;20.338;2023-03-23T00:26:35;153.90;1612.80
70593;DHT22;58294;42.988;20.338;2023-03-23T00:29:04;153.90;1612.80
70593;DHT22;58294;42.988;20.338;2023-03-23T00:31:30;153.90;1612.80
70593;DHT22;58294;42.988;20.338;2023-03-23T00:33:58;153.90;1638.40
70593;DHT22;58294;42.988;20.338;2023-03-23T00:36:26;153.80;1612.80
70593;DHT22;58294;42.988;20.338;2023-03-23T00:38:52;153.80;1638.40
70593;DHT22;58294;42.988;20.338;2023-03-23T00:41:17;153.80;1638.40
70593;DHT22;58294;42.988;20.338;2023-03-23T00:43:43;153.90;1638.40
70593;DHT22;58294;42.988;20.338;2023-03-23T00:46:09;153.80;1612.80
70593;DHT22;58294;42.988;20.338;2023-03-23T00:48:37;153.70;1638.40
70593;DHT22;58294;42.988;20.338;2023-03-23T00:51:10;153.70;1612.80
70593;DHT22;58294;42.988;20.338;2023-03-23T00:53:35;153.70;1612.80
70593;DHT22;58294;42.988;20.338;2023-03-23T00:56:01;153.60;1638.40
70593;DHT22;58294;42.988;20.338;2023-03-23T00:58:27;153.60;1612.80
70593;DHT22;58294;42.988;20.338;2023-03-23T01:00:52;153.60;1638.40
70593;DHT22;58294;42.988;20.338;2023-03-23T01:03:18;128.90;1612.80
70593;DHT22;58294;42.988;20.338;2023-03-23T01:05:44;128.90;1638.40
70593;DHT22;58294;42.988;20.338;2023-03-23T01:08:12;128.80;1638.40
70593;DHT22;58294;42.988;20.338;2023-03-23T01:10:38;128.80;1664.00
70593;DHT22;58294;42.988;20.338;2023-03-23T01:13:04;128.80;1638.40
70593;DHT22;58294;42.988;20.338;2023-03-23T01:15:30;128.70;1638.40
70593;DHT22;58294;42.988;20.338;2023-03-23T01:17:56;128.70;1638.40
70593;DHT22;58294;42.988;20.338;2023-03-23T01:20:23;128.70;1664.00
70593;DHT22;58294;42.988;20.338;2023-03-23T01:22:48;128.60;1664.00
70593;DHT22;58294;42.988;20.338;2023-03-23T01:25:14;128.60;1664.00
70593;DHT22;58294;42.988;20.338;2023-03-23T01:27:40;128.60;1664.00
70593;DHT22;58294;42.988;20.338;2023-03-23T01:30:06;128.60;1664.00
70593;DHT22;58294;42.988;20.338;2023-03-23T01:32:33;128.60;1638.40
70593;DHT22;58294;42.988;20.338;2023-03-23T01:34:58;128.50;1664.00
70593;DHT22;58294;42.988;20.338;2023-03-23T01:37:24;128.50;1689.60
70593;DHT22;58294;42.988;20.338;2023-03-23T01:39:52;128.50;1664.00
70593;DHT22;58294;42.988;20.338;2023-03-23T01:42:20;128.40;1689.60
70593;DHT22;58294;42.988;20.338;2023-03-23T01:47:11;128.40;1689.60
70593;DHT22;58294;42.988;20.338;2023-03-23T01:49:37;128.30;1664.00
70593;DHT22;58294;42.988;20.338;2023-03-23T01:52:09;128.30;1689.60
70593;DHT22;58294;42.988;20.338;2023-03-23T01:54:38;128.30;1689.60
70593;DHT22;58294;42.988;20.338;2023-03-23T01:57:06;128.30;1689.60
70593;DHT22;58294;42.988;20.338;2023-03-23T01:59:34;128.30;1689.60
70593;DHT22;58294;42.988;20.338;2023-03-23T02:02:00;128.30;1689.60
70593;DHT22;58294;42.988;20.338;2023-03-23T02:04:27;128.20;1689.60
70593;DHT22;58294;42.988;20.338;2023-03-23T02:06:54;128.20;1689.60
70593;DHT22;58294;42.988;20.338;2023-03-23T02:09:25;128.20;1689.60
70593;DHT22;58294;42.988;20.338;2023-03-23T02:11:51;128.10;1689.60
70593;DHT22;58294;42.988;20.338;2023-03-23T02:14:18;128.10;1689.60
70593;DHT22;58294;42.988;20.338;2023-03-23T02:29:46;128.00;1715.20
70593;DHT22;58294;42.988;20.338;2023-03-23T02:34:49;128.00;1740.80
70593;DHT22;58294;42.988;20.338;2023-03-23T02:39:51;128.00;1715.20
70593;DHT22;58294;42.988;20.338;2023-03-23T02:42:20;103.30;1689.60
70593;DHT22;58294;42.988;20.338;2023-03-23T02:44:48;103.30;1715.20
70593;DHT22;58294;42.988;20.338;2023-03-23T02:47:19;103.30;1689.60
70593;DHT22;58294;42.988;20.338;2023-03-23T02:49:45;103.30;1689.60
70593;DHT22;58294;42.988;20.338;2023-03-23T02:52:12;103.30;1689.60
70593;DHT22;58294;42.988;20.338;2023-03-23T02:54:41;103.20;1689.60
70593;DHT22;58294;42.988;20.338;2023-03-23T02:57:08;103.30;1689.60
70593;DHT22;58294;42.988;20.338;2023-03-23T02:59:33;103.30;1689.60
70593;DHT22;58294;42.988;20.338;2023-03-23T03:02:00;103.20;1689.60
70593;DHT22;58294;42.988;20.338;2023-03-23T03:04:27;103.20;1689.60
70593;DHT22;58294;42.988;20.338;2023-03-23T03:07:16;103.10;1715.20
70593;DHT22;58294;42.988;20.338;2023-03-23T03:12:27;103.10;1715.20
70593;DHT22;58294;42.988;20.338;2023-03-23T03:15:00;103.10;1715.20
70593;DHT22;58294;42.988;20.338;2023-03-23T03:17:26;103.10;1715.20
70593;DHT22;58294;42.988;20.338;2023-03-23T03:19:55;103.10;1715.20
70593;DHT22;58294;42.988;20.338;2023-03-23T03:22:22;103.10;1715.20
70593;DHT22;58294;42.988;20.338;2023-03-23T03:24:48;103.10;1715.20
70593;DHT22;58294;42.988;20.338;2023-03-23T03:27:16;103.10;1715.20
70593;DHT22;58294;42.988;20.338;2023-03-23T03:29:44;103.10;1715.20
70593;DHT22;58294;42.988;20.338;2023-03-23T03:32:14;103.00;1715.20
70593;DHT22;58294;42.988;20.338;2023-03-23T03:34:40;103.00;1715.20
70593;DHT22;58294;42.988;20.338;2023-03-23T03:37:06;103.00;1715.20
70593;DHT22;58294;42.988;20.338;2023-03-23T03:39:35;103.00;1715.20
70593;DHT22;58294;42.988;20.338;2023-03-23T03:42:01;103.00;1715.20
70593;DHT22;58294;42.988;20.338;2023-03-23T03:44:27;102.90;1715.20
70593;DHT22;58294;42.988;20.338;2023-03-23T03:46:52;102.90;1715.20
70593;DHT22;58294;42.988;20.338;2023-03-23T03:49:18;102.90;1715.20
70593;DHT22;58294;42.988;20.338;2023-03-23T03:51:44;102.90;1715.20
70593;DHT22;58294;42.988;20.338;2023-03-23T03:54:09;102.90;1715.20
70593;DHT22;58294;42.988;20.338;2023-03-23T03:56:36;102.80;1740.80
70593;DHT22;58294;42.988;20.338;2023-03-23T03:59:06;102.90;1740.80
70593;DHT22;58294;42.988;20.338;2023-03-23T04:01:33;102.90;1766.40
70593;DHT22;58294;42.988;20.338;2023-03-23T04:03:59;102.90;1766.40
70593;DHT22;58294;42.988;20.338;2023-03-23T04:06:24;102.90;1740.80
70593;DHT22;58294;42.988;20.338;2023-03-23T04:08:56;103.00;1740.80
70593;DHT22;58294;42.988;20.338;2023-03-23T04:11:24;103.00;1740.80
70593;DHT22;58294;42.988;20.338;2023-03-23T04:13:50;103.00;1766.40
70593;DHT22;58294;42.988;20.338;2023-03-23T04:16:15;103.10;1766.40
70593;DHT22;58294;42.988;20.338;2023-03-23T04:18:42;103.10;1766.40
70593;DHT22;58294;42.988;20.338;2023-03-23T04:21:10;103.10;1740.80
70593;DHT22;58294;42.988;20.338;2023-03-23T04:23:35;103.00;1715.20
70593;DHT22;58294;42.988;20.338;2023-03-23T04:26:02;103.00;1715.20
70593;DHT22;58294;42.988;20.338;2023-03-23T04:28:28;102.90;1715.20
70593;DHT22;58294;42.988;20.338;2023-03-23T04:30:54;102.90;1689.60
70593;DHT22;58294;42.988;20.338;2023-03-23T04:33:24;102.80;1689.60
70593;DHT22;58294;42.988;20.338;2023-03-23T04:35:50;102.70;1715.20
70593;DHT22;58294;42.988;20.338;2023-03-23T04:38:17;102.70;1715.20
70593;DHT22;58294;42.988;20.338;2023-03-23T04:40:45;102.70;1715.20
70593;DHT22;58294;42.988;20.338;2023-03-23T04:43:12;102.70;1715.20
70593;DHT22;58294;42.988;20.338;2023-03-23T04:45:37;102.60;1740.80
70593;DHT22;58294;42.988;20.338;2023-03-23T04:48:07;102.60;1740.80
70593;DHT22;58294;42.988;20.338;2023-03-23T04:50:32;102.60;1740.80
70593;DHT22;58294;42.988;20.338;2023-03-23T04:52:59;102.60;1740.80
70593;DHT22;58294;42.988;20.338;2023-03-23T04:55:32;102.60;1766.40
70593;DHT22;58294;42.988;20.338;2023-03-23T04:58:04;102.60;1766.40
70593;DHT22;58294;42.988;20.338;2023-03-23T05:00:31;102.60;1766.40
70593;DHT22;58294;42.988;20.338;2023-03-23T05:02:57;102.60;1766.40
70593;DHT22;58294;42.988;20.338;2023-03-23T05:05:24;102.70;1766.40
70593;DHT22;58294;42.988;20.338;2023-03-23T05:07:50;102.70;1766.40
70593;DHT22;58294;42.988;20.338;2023-03-23T05:10:16;102.70;1766.40
70593;DHT22;58294;42.988;20.338;2023-03-23T05:12:42;102.70;1766.40
70593;DHT22;58294;42.988;20.338;2023-03-23T05:15:08;102.70;1766.40
70593;DHT22;58294;42.988;20.338;2023-03-23T05:17:34;102.80;1766.40
70593;DHT22;58294;42.988;20.338;2023-03-23T05:20:00;102.80;1792.00
70593;DHT22;58294;42.988;20.338;2023-03-23T05:22:26;102.80;1792.00
70593;DHT22;58294;42.988;20.338;2023-03-23T05:24:52;102.90;1792.00
70593;DHT22;58294;42.988;20.338;2023-03-23T05:27:18;102.90;1766.40
70593;DHT22;58294;42.988;20.338;2023-03-23T05:29:44;102.90;1792.00
70593;DHT22;58294;42.988;20.338;2023-03-23T05:32:11;103.00;1792.00
70593;DHT22;58294;42.988;20.338;2023-03-23T05:34:36;103.00;1792.00
70593;DHT22;58294;42.988;20.338;2023-03-23T05:37:02;103.00;1766.40
70593;DHT22;58294;42.988;20.338;2023-03-23T05:39:29;103.10;1766.40
70593;DHT22;58294;42.988;20.338;2023-03-23T05:41:54;103.00;1766.40
70593;DHT22;58294;42.988;20.338;2023-03-23T05:44:20;103.10;1766.40
70593;DHT22;58294;42.988;20.338;2023-03-23T05:46:46;103.10;1740.80
70593;DHT22;58294;42.988;20.338;2023-03-23T05:49:13;103.10;1740.80
70593;DHT22;58294;42.988;20.338;2023-03-23T05:51:39;103.20;1740.80
70593;DHT22;58294;42.988;20.338;2023-03-23T05:54:05;103.20;1740.80
70593;DHT22;58294;42.988;20.338;2023-03-23T05:56:30;103.20;1766.40
70593;DHT22;58294;42.988;20.338;2023-03-23T05:58:56;103.30;1766.40
70593;DHT22;58294;42.988;20.338;2023-03-23T06:01:22;103.30;1740.80
70593;DHT22;58294;42.988;20.338;2023-03-23T06:03:48;128.00;1792.00
70593;DHT22;58294;42.988;20.338;2023-03-23T06:06:16;128.00;1792.00
70593;DHT22;58294;42.988;20.338;2023-03-23T06:08:43;128.10;1792.00
70593;DHT22;58294;42.988;20.338;2023-03-23T06:11:09;128.20;1792.00
70593;DHT22;58294;42.988;20.338;2023-03-23T06:13:35;128.30;1817.60
70593;DHT22;58294;42.988;20.338;2023-03-23T06:16:02;128.30;1817.60
70593;DHT22;58294;42.988;20.338;2023-03-23T06:18:27;128.40;1843.20
70593;DHT22;58294;42.988;20.338;2023-03-23T06:20:54;128.50;1843.20
70593;DHT22;58294;42.988;20.338;2023-03-23T06:23:19;128.70;1817.60
70593;DHT22;58294;42.988;20.338;2023-03-23T06:25:45;128.80;1843.20
70593;DHT22;58294;42.988;20.338;2023-03-23T06:28:11;128.90;1868.80
70593;DHT22;58294;42.988;20.338;2023-03-23T06:30:36;153.60;1843.20
70593;DHT22;58294;42.988;20.338;2023-03-23T06:33:02;153.80;1868.80
70593;DHT22;58294;42.988;20.338;2023-03-23T06:35:33;153.90;1843.20
70593;DHT22;58294;42.988;20.338;2023-03-23T06:37:58;154.00;1843.20
70593;DHT22;58294;42.988;20.338;2023-03-23T06:40:27;154.10;1843.20
70593;DHT22;58294;42.988;20.338;2023-03-23T06:42:54;154.20;1843.20
70593;DHT22;58294;42.988;20.338;2023-03-23T06:45:19;154.40;1843.20
70593;DHT22;58294;42.988;20.338;2023-03-23T06:47:46;154.50;1843.20
70593;DHT22;58294;42.988;20.338;2023-03-23T06:50:14;179.20;1843.20
70593;DHT22;58294;42.988;20.338;2023-03-23T06:52:40;179.40;1843.20
70593;DHT22;58294;42.988;20.338;2023-03-23T06:55:06;179.50;1843.20
70593;DHT22;58294;42.988;20.338;2023-03-23T06:57:32;179.70;1817.60
70593;DHT22;58294;42.988;20.338;2023-03-23T06:59:58;179.80;1817.60
70593;DHT22;58294;42.988;20.338;2023-03-23T07:02:23;179.90;1817.60
70593;DHT22;58294;42.988;20.338;2023-03-23T07:04:49;180.00;1843.20
70593;DHT22;58294;42.988;20.338;2023-03-23T07:07:14;180.10;1843.20
70593;DHT22;58294;42.988;20.338;2023-03-23T07:09:44;204.80;1817.60
70593;DHT22;58294;42.988;20.338;2023-03-23T07:12:09;205.00;1817.60
70593;DHT22;58294;42.988;20.338;2023-03-23T07:14:35;205.10;1868.80
70593;DHT22;58294;42.988;20.338;2023-03-23T07:17:02;205.30;1868.80
70593;DHT22;58294;42.988;20.338;2023-03-23T07:19:28;205.40;1843.20
70593;DHT22;58294;42.988;20.338;2023-03-23T07:21:54;205.60;1843.20
70593;DHT22;58294;42.988;20.338;2023-03-23T07:24:19;205.60;1843.20
70593;DHT22;58294;42.988;20.338;2023-03-23T07:26:45;230.40;1894.40
70593;DHT22;58294;42.988;20.338;2023-03-23T07:29:11;230.60;1868.80
70593;DHT22;58294;42.988;20.338;2023-03-23T07:31:37;230.70;1868.80
70593;DHT22;58294;42.988;20.338;2023-03-23T07:34:02;230.90;1817.60
70593;DHT22;58294;42.988;20.338;2023-03-23T07:36:28;231.00;1817.60
70593;DHT22;58294;42.988;20.338;2023-03-23T07:38:54;231.10;1817.60
70593;DHT22;58294;42.988;20.338;2023-03-23T07:41:20;231.30;1817.60
70593;DHT22;58294;42.988;20.338;2023-03-23T07:43:46;256.00;1817.60
70593;DHT22;58294;42.988;20.338;2023-03-23T07:46:12;256.20;1766.40
70593;DHT22;58294;42.988;20.338;2023-03-23T07:48:38;256.40;1843.20
70593;DHT22;58294;42.988;20.338;2023-03-23T07:51:04;256.60;1817.60
70593;DHT22;58294;42.988;20.338;2023-03-23T07:53:30;256.70;1792.00
70593;DHT22;58294;42.988;20.338;2023-03-23T07:55:55;281.60;1843.20
70593;DHT22;58294;42.988;20.338;2023-03-23T07:58:21;281.80;1817.60
70593;DHT22;58294;42.988;20.338;2023-03-23T08:00:47;281.90;1766.40
70593;DHT22;58294;42.988;20.338;2023-03-23T08:03:14;282.00;1792.00
70593;DHT22;58294;42.988;20.338;2023-03-23T08:05:41;282.10;1792.00
70593;DHT22;58294;42.988;20.338;2023-03-23T08:08:07;282.30;1792.00
70593;DHT22;58294;42.988;20.338;2023-03-23T08:10:33;282.40;1766.40
70593;DHT22;58294;42.988;20.338;2023-03-23T08:12:58;282.50;1766.40
70593;DHT22;58294;42.988;20.338;2023-03-23T08:15:25;307.30;1817.60
70593;DHT22;58294;42.988;20.338;2023-03-23T08:17:51;307.40;1792.00
70593;DHT22;58294;42.988;20.338;2023-03-23T08:20:17;307.60;1817.60
70593;DHT22;58294;42.988;20.338;2023-03-23T08:22:54;307.70;1817.60
70593;DHT22;58294;42.988;20.338;2023-03-23T08:25:20;307.90;1868.80
70593;DHT22;58294;42.988;20.338;2023-03-23T08:27:46;332.80;1843.20
70593;DHT22;58294;42.988;20.338;2023-03-23T08:30:13;332.90;1817.60
70593;DHT22;58294;42.988;20.338;2023-03-23T08:32:39;333.10;1792.00
70593;DHT22;58294;42.988;20.338;2023-03-23T08:35:05;333.10;1817.60
70593;DHT22;58294;42.988;20.338;2023-03-23T08:37:32;333.30;1766.40
70593;DHT22;58294;42.988;20.338;2023-03-23T08:39:57;333.40;1792.00
70593;DHT22;58294;42.988;20.338;2023-03-23T08:42:25;333.60;1740.80
70593;DHT22;58294;42.988;20.338;2023-03-23T08:44:52;333.70;1766.40
70593;DHT22;58294;42.988;20.338;2023-03-23T08:47:18;358.40;1715.20
70593;DHT22;58294;42.988;20.338;2023-03-23T08:49:43;358.40;1740.80
70593;DHT22;58294;42.988;20.338;2023-03-23T08:52:10;358.50;1766.40
70593;DHT22;58294;42.988;20.338;2023-03-23T08:54:36;358.60;1792.00
70593;DHT22;58294;42.988;20.338;2023-03-23T08:57:02;358.70;1740.80
70593;DHT22;58294;42.988;20.338;2023-03-23T08:59:28;358.70;1715.20
70593;DHT22;58294;42.988;20.338;2023-03-23T09:01:53;358.80;1638.40
70593;DHT22;58294;42.988;20.338;2023-03-23T09:04:19;358.80;1664.00
70593;DHT22;58294;42.988;20.338;2023-03-23T09:06:46;359.00;1664.00
70593;DHT22;58294;42.988;20.338;2023-03-23T09:09:12;359.10;1689.60
70593;DHT22;58294;42.988;20.338;2023-03-23T09:11:38;359.20;1740.80
70593;DHT22;58294;42.988;20.338;2023-03-23T09:14:04;384.00;1740.80
70593;DHT22;58294;42.988;20.338;2023-03-23T09:16:30;384.20;1689.60
70593;DHT22;58294;42.988;20.338;2023-03-23T09:18:56;384.30;1638.40
70593;DHT22;58294;42.988;20.338;2023-03-23T09:21:23;384.40;1638.40
70593;DHT22;58294;42.988;20.338;2023-03-23T09:23:48;384.70;1638.40
70593;DHT22;58294;42.988;20.338;2023-03-23T09:26:14;384.70;1664.00
70593;DHT22;58294;42.988;20.338;2023-03-23T09:28:40;384.90;1612.80
70593;DHT22;58294;42.988;20.338;2023-03-23T09:31:06;409.60;1536.00
70593;DHT22;58294;42.988;20.338;2023-03-23T09:33:31;409.60;1587.20
70593;DHT22;58294;42.988;20.338;2023-03-23T09:36:02;409.70;1638.40
70593;DHT22;58294;42.988;20.338;2023-03-23T09:38:31;409.90;1587.20
70593;DHT22;58294;42.988;20.338;2023-03-23T09:41:04;410.00;1561.60
70593;DHT22;58294;42.988;20.338;2023-03-23T09:43:39;410.00;1561.60
70593;DHT22;58294;42.988;20.338;2023-03-23T09:48:53;410.10;1536.00
70593;DHT22;58294;42.988;20.338;2023-03-23T09:56:49;410.30;1510.40
70593;DHT22;58294;42.988;20.338;2023-03-23T09:59:23;410.40;1536.00
70593;DHT22;58294;42.988;20.338;2023-03-23T10:01:51;435.20;1715.20
70593;DHT22;58294;42.988;20.338;2023-03-23T10:06:49;435.70;1612.80
70593;DHT22;58294;42.988;20.338;2023-03-23T10:09:16;436.00;1817.60
70593;DHT22;58294;42.988;20.338;2023-03-23T10:19:38;537.60;2252.80
70593;DHT22;58294;42.988;20.338;2023-03-23T10:22:10;538.00;2099.20
70593;DHT22;58294;42.988;20.338;2023-03-23T10:24:43;538.40;1433.60
70593;DHT22;58294;42.988;20.338;2023-03-23T10:29:43;588.80;1868.80
70593;DHT22;58294;42.988;20.338;2023-03-23T10:32:12;589.30;1766.40
70593;DHT22;58294;42.988;20.338;2023-03-23T10:34:43;614.40;1638.40
70593;DHT22;58294;42.988;20.338;2023-03-23T10:37:20;614.90;1510.40
70593;DHT22;58294;42.988;20.338;2023-03-23T10:39:52;615.30;1612.80
70593;DHT22;58294;42.988;20.338;2023-03-23T10:42:26;640.70;1382.40
70593;DHT22;58294;42.988;20.338;2023-03-23T10:44:53;665.60;1356.80
70593;DHT22;58294;42.988;20.338;2023-03-23T10:47:19;666.10;1126.40
70593;DHT22;58294;42.988;20.338;2023-03-23T10:49:49;691.30;1305.60
70593;DHT22;58294;42.988;20.338;2023-03-23T10:54:55;691.70;1075.20
70593;DHT22;58294;42.988;20.338;2023-03-23T10:57:23;691.70;921.60
70593;DHT22;58294;42.988;20.338;2023-03-23T10:59:50;717.00;1228.80
70593;DHT22;58294;42.988;20.338;2023-03-23T11:02:19;716.90;844.80
70593;DHT22;58294;42.988;20.338;2023-03-23T11:04:46;717.00;972.80
70593;DHT22;58294;42.988;20.338;2023-03-23T11:07:16;717.50;1049.60
70593;DHT22;58294;42.988;20.338;2023-03-23T11:09:51;742.60;947.20
70593;DHT22;58294;42.988;20.338;2023-03-23T11:12:17;743.00;1024.00
70593;DHT22;58294;42.988;20.338;2023-03-23T11:14:43;743.00;947.20
70593;DHT22;58294;42.988;20.338;2023-03-23T11:17:23;768.00;1024.00
70593;DHT22;58294;42.988;20.338;2023-03-23T11:19:49;768.20;844.80
70593;DHT22;58294;42.988;20.338;2023-03-23T11:22:17;768.40;921.60
70593;DHT22;58294;42.988;20.338;2023-03-23T11:24:45;768.10;870.40
70593;DHT22;58294;42.988;20.338;2023-03-23T11:27:11;768.50;870.40
70593;DHT22;58294;42.988;20.338;2023-03-23T11:29:46;768.60;870.40
70593;DHT22;58294;42.988;20.338;2023-03-23T11:32:13;768.70;716.80
70593;DHT22;58294;42.988;20.338;2023-03-23T11:34:41;768.70;793.60
70593;DHT22;58294;42.988;20.338;2023-03-23T11:37:16;793.60;870.40
70593;DHT22;58294;42.988;20.338;2023-03-23T11:52:19;844.80;844.80
70593;DHT22;58294;42.988;20.338;2023-03-23T11:55:08;820.10;819.20
70593;DHT22;58294;42.988;20.338;2023-03-23T11:57:35;820.10;716.80
70593;DHT22;58294;42.988;20.338;2023-03-23T12:33:04;717.60;537.60
70593;DHT22;58294;42.988;20.338;2023-03-23T12:35:53;692.00;537.60
70593;DHT22;58294;42.988;20.338;2023-03-23T12:39:00;666.40;563.20
70593;DHT22;58294;42.988;20.338;2023-03-23T12:44:06;640.10;588.80
70593;DHT22;58294;42.988;20.338;2023-03-23T12:49:16;614.50;588.80
70593;DHT22;58294;42.988;20.338;2023-03-23T12:51:48;589.60;665.60
70593;DHT22;58294;42.988;20.338;2023-03-23T12:54:51;589.20;640.00
70593;DHT22;58294;42.988;20.338;2023-03-23T12:57:14;589.00;691.20
70593;DHT22;58294;42.988;20.338;2023-03-23T12:59:58;588.80;691.20
70593;DHT22;58294;42.988;20.338;2023-03-23T13:02:29;563.90;691.20
70593;DHT22;58294;42.988;20.338;2023-03-23T13:05:03;563.70;691.20
70593;DHT22;58294;42.988;20.338;2023-03-23T13:07:45;563.50;691.20
70593;DHT22;58294;42.988;20.338;2023-03-23T13:12:40;563.20;716.80
70593;DHT22;58294;42.988;20.338;2023-03-23T13:27:58;537.80;691.20
70593;DHT22;58294;42.988;20.338;2023-03-23T13:30:24;537.70;716.80
70593;DHT22;58294;42.988;20.338;2023-03-23T13:32:50;537.60;716.80
70593;DHT22;58294;42.988;20.338;2023-03-23T13:35:18;512.90;691.20
70593;DHT22;58294;42.988;20.338;2023-03-23T13:37:46;512.90;691.20
70593;DHT22;58294;42.988;20.338;2023-03-23T13:42:48;512.70;691.20
70593;DHT22;58294;42.988;20.338;2023-03-23T13:47:46;512.50;691.20
70593;DHT22;58294;42.988;20.338;2023-03-23T13:50:43;512.40;716.80
70593;DHT22;58294;42.988;20.338;2023-03-23T13:52:59;512.40;691.20
70593;DHT22;58294;42.988;20.338;2023-03-23T14:02:58;512.30;665.60
70593;DHT22;58294;42.988;20.338;2023-03-23T14:05:29;512.20;691.20
70593;DHT22;58294;42.988;20.338;2023-03-23T14:08:03;512.20;691.20
70593;DHT22;58294;42.988;20.338;2023-03-23T14:10:36;512.20;691.20
70593;DHT22;58294;42.988;20.338;2023-03-23T14:13:03;512.10;691.20
70593;DHT22;58294;42.988;20.338;2023-03-23T14:15:31;512.10;691.20
70593;DHT22;58294;42.988;20.338;2023-03-23T14:17:56;512.10;691.20
70593;DHT22;58294;42.988;20.338;2023-03-23T14:20:26;512.10;691.20
70593;DHT22;58294;42.988;20.338;2023-03-23T14:22:55;512.10;716.80
70593;DHT22;58294;42.988;20.338;2023-03-23T14:25:21;512.00;716.80
70593;DHT22;58294;42.988;20.338;2023-03-23T14:27:51;512.00;716.80
70593;DHT22;58294;42.988;20.338;2023-03-23T14:30:21;512.00;691.20
70593;DHT22;58294;42.988;20.338;2023-03-23T14:32:47;512.00;716.80
70593;DHT22;58294;42.988;20.338;2023-03-23T14:37:40;487.30;691.20
70593;DHT22;58294;42.988;20.338;2023-03-23T14:40:08;487.20;716.80
70593;DHT22;58294;42.988;20.338;2023-03-23T14:42:35;487.20;716.80
70593;DHT22;58294;42.988;20.338;2023-03-23T14:45:01;487.20;716.80
70593;DHT22;58294;42.988;20.338;2023-03-23T14:47:35;487.20;716.80
70593;DHT22;58294;42.988;20.338;2023-03-23T14:50:04;487.20;716.80
70593;DHT22;58294;42.988;20.338;2023-03-23T14:52:34;487.20;716.80
70593;DHT22;58294;42.988;20.338;2023-03-23T14:55:15;487.20;716.80
70593;DHT22;58294;42.988;20.338;2023-03-23T14:57:42;487.20;716.80
70593;DHT22;58294;42.988;20.338;2023-03-23T15:00:12;487.00;716.80
70593;DHT22;58294;42.988;20.338;2023-03-23T15:02:39;487.00;716.80
70593;DHT22;58294;42.988;20.338;2023-03-23T15:05:09;487.00;716.80
70593;DHT22;58294;42.988;20.338;2023-03-23T15:07:38;486.90;716.80
70593;DHT22;58294;42.988;20.338;2023-03-23T15:10:12;486.90;742.40
70593;DHT22;58294;42.988;20.338;2023-03-23T15:12:39;486.90;742.40
70593;DHT22;58294;42.988;20.338;2023-03-23T15:15:06;486.90;716.80
70593;DHT22;58294;42.988;20.338;2023-03-23T15:17:34;486.90;716.80
70593;DHT22;58294;42.988;20.338;2023-03-23T15:20:07;486.90;742.40
70593;DHT22;58294;42.988;20.338;2023-03-23T15:22:33;486.90;742.40
70593;DHT22;58294;42.988;20.338;2023-03-23T15:25:12;486.90;742.40
70593;DHT22;58294;42.988;20.338;2023-03-23T15:27:41;486.80;742.40
70593;DHT22;58294;42.988;20.338;2023-03-23T15:30:29;486.80;742.40
70593;DHT22;58294;42.988;20.338;2023-03-23T15:32:54;486.70;742.40
70593;DHT22;58294;42.988;20.338;2023-03-23T15:35:24;486.70;768.00
70593;DHT22;58294;42.988;20.338;2023-03-23T15:37:51;486.70;742.40
70593;DHT22;58294;42.988;20.338;2023-03-23T15:40:21;486.70;742.40
70593;DHT22;58294;42.988;20.338;2023-03-23T15:42:47;486.70;742.40
70593;DHT22;58294;42.988;20.338;2023-03-23T15:50:15;486.60;742.40
70593;DHT22;58294;42.988;20.338;2023-03-23T15:52:41;486.60;768.00
70593;DHT22;58294;42.988;20.338;2023-03-23T15:57:51;486.50;742.40
70593;DHT22;58294;42.988;20.338;2023-03-23T16:00:18;486.50;742.40
70593;DHT22;58294;42.988;20.338;2023-03-23T16:02:48;486.50;742.40
70593;DHT22;58294;42.988;20.338;2023-03-23T16:05:14;486.40;742.40
70593;DHT22;58294;42.988;20.338;2023-03-23T16:07:40;486.40;742.40
70593;DHT22;58294;42.988;20.338;2023-03-23T16:10:06;486.40;742.40
70593;DHT22;58294;42.988;20.338;2023-03-23T16:12:32;486.40;742.40
70593;DHT22;58294;42.988;20.338;2023-03-23T16:14:58;461.70;742.40
70593;DHT22;58294;42.988;20.338;2023-03-23T16:17:23;461.70;742.40
70593;DHT22;58294;42.988;20.338;2023-03-23T16:19:49;461.60;742.40
70593;DHT22;58294;42.988;20.338;2023-03-23T16:22:14;461.60;768.00
70593;DHT22;58294;42.988;20.338;2023-03-23T16:24:40;461.50;742.40
70593;DHT22;58294;42.988;20.338;2023-03-23T16:27:08;461.50;742.40
70593;DHT22;58294;42.988;20.338;2023-03-23T16:29:33;461.40;768.00
70593;DHT22;58294;42.988;20.338;2023-03-23T16:31:59;461.30;768.00
70593;DHT22;58294;42.988;20.338;2023-03-23T16:34:24;461.20;768.00
70593;DHT22;58294;42.988;20.338;2023-03-23T16:36:53;461.20;793.60
70593;DHT22;58294;42.988;20.338;2023-03-23T16:39:18;461.10;768.00
70593;DHT22;58294;42.988;20.338;2023-03-23T16:41:44;460.90;768.00
70593;DHT22;58294;42.988;20.338;2023-03-23T16:44:10;460.90;768.00
70593;DHT22;58294;42.988;20.338;2023-03-23T16:46:36;460.80;793.60
70593;DHT22;58294;42.988;20.338;2023-03-23T16:49:01;436.10;768.00
70593;DHT22;58294;42.988;20.338;2023-03-23T16:51:27;436.00;768.00
70593;DHT22;58294;42.988;20.338;2023-03-23T16:53:53;435.80;768.00
70593;DHT22;58294;42.988;20.338;2023-03-23T16:56:18;435.70;768.00
70593;DHT22;58294;42.988;20.338;2023-03-23T16:58:44;435.60;793.60